Terminal Aerodrome Forecast
Issued by NWS

Home | Current Version | Previous Version | Text Only | Print | Product List | Glossary On
Versions: 1 2 3 4 5 6 7 8 9 10 11 12 13 14 15 16 17 18 19 20 21
000
FTUS46 KSEW 202300
TAFOLM
TAF
KOLM 202324Z 2100/2124 19013KT 2SM -RA BR BKN011 OVC023
     FM210200 19017G26KT 2SM -RA BR OVC012
     FM210600 20018G27KT 2SM -RA BR OVC007
     FM211600 24012KT 4SM -RA BR OVC007
     FM212100 24009KT P6SM VCSH OVC025=

USA.gov is the U.S. government's official web portal to all federal, state and local government web resources and services.